createdAt,value
2022-07-31T00:02:09.633Z,101197.69
2022-07-31T00:04:56.468Z,101200.41
2022-07-31T00:07:43.093Z,101199.59
2022-07-31T00:10:30.382Z,101196.19
2022-07-31T00:13:17.307Z,101197.09
2022-07-31T00:16:04.075Z,101184.91
2022-07-31T00:18:52.203Z,101192.06
2022-07-31T00:21:38.971Z,101189.56
2022-07-31T00:24:27.040Z,101188.91
2022-07-31T00:27:16.484Z,101193.63
2022-07-31T00:30:03.404Z,101172.81
2022-07-31T00:32:51.989Z,101188.56
2022-07-31T00:35:40.219Z,101187.69
2022-07-31T00:38:27.688Z,101185.09
2022-07-31T00:41:14.413Z,101187.00
2022-07-31T00:44:01.167Z,101179.97
2022-07-31T00:46:48.398Z,101188.09
2022-07-31T00:49:37.732Z,101183.59
2022-07-31T00:52:26.314Z,101185.59
2022-07-31T00:55:12.866Z,101178.50
2022-07-31T00:57:59.563Z,101177.72
2022-07-31T01:00:46.264Z,101179.63
2022-07-31T01:03:33.045Z,101176.09
2022-07-31T01:06:19.959Z,101174.50
2022-07-31T01:09:08.275Z,101171.13
2022-07-31T01:12:01.837Z,101175.84
2022-07-31T01:14:52.638Z,101173.38
2022-07-31T01:17:41.272Z,101174.38
2022-07-31T01:20:30.179Z,101169.25
2022-07-31T01:23:39.435Z,101169.44
2022-07-31T01:26:50.642Z,101175.81
2022-07-31T01:29:45.470Z,101169.50
2022-07-31T01:32:37.276Z,101176.66
2022-07-31T01:35:29.683Z,101176.66
2022-07-31T01:38:20.903Z,101175.88
2022-07-31T01:41:11.643Z,101161.31
2022-07-31T01:43:59.877Z,101173.47
2022-07-31T01:46:49.723Z,101169.94
2022-07-31T01:49:39.453Z,101174.69
2022-07-31T01:52:29.490Z,101172.53
2022-07-31T01:55:17.748Z,101179.69
2022-07-31T01:58:06.792Z,101180.31
2022-07-31T02:00:55.527Z,101166.25
2022-07-31T02:03:46.383Z,101162.16
2022-07-31T02:06:40.689Z,101169.47
2022-07-31T02:09:29.006Z,101171.56
2022-07-31T02:12:16.223Z,101169.69
2022-07-31T02:15:05.637Z,101168.81
2022-07-31T02:17:54.436Z,101157.31
2022-07-31T02:20:56.396Z,101152.19
2022-07-31T02:23:45.435Z,101160.28
2022-07-31T02:26:34.940Z,101161.16
2022-07-31T02:29:23.080Z,101155.03
2022-07-31T02:32:11.898Z,101161.31
2022-07-31T02:35:01.427Z,101154.25
2022-07-31T02:37:52.614Z,101163.00
2022-07-31T02:40:42.466Z,101159.44
2022-07-31T02:43:32.044Z,101164.72
2022-07-31T02:46:23.224Z,101164.91
2022-07-31T02:49:10.730Z,101160.53
2022-07-31T02:51:58.621Z,101164.88
2022-07-31T02:54:47.636Z,101157.91
2022-07-31T02:57:34.827Z,101163.09
2022-07-31T03:00:27.069Z,101160.47
2022-07-31T03:03:14.607Z,101158.88
2022-07-31T03:06:02.666Z,101135.44
2022-07-31T03:08:49.749Z,101149.50
2022-07-31T03:11:41.759Z,101126.13
2022-07-31T03:14:32.748Z,101145.22
2022-07-31T03:17:20.436Z,101141.75
2022-07-31T03:20:08.336Z,101139.09
2022-07-31T03:22:55.289Z,101125.00
2022-07-31T03:25:43.288Z,101137.28
2022-07-31T03:28:31.177Z,101140.94
2022-07-31T03:31:17.870Z,101130.31
2022-07-31T03:34:04.595Z,101133.00
2022-07-31T03:36:52.825Z,101133.00
2022-07-31T03:39:39.838Z,101136.50
2022-07-31T03:42:32.128Z,101135.66
2022-07-31T03:45:22.310Z,101126.72
2022-07-31T03:48:10.123Z,101131.97
2022-07-31T03:50:59.491Z,101122.44
2022-07-31T03:53:50.135Z,101133.19
2022-07-31T03:57:01.117Z,101120.97
2022-07-31T03:59:50.319Z,101133.09
2022-07-31T04:02:38.527Z,101129.41
2022-07-31T04:05:42.235Z,101135.31
2022-07-31T04:08:29.114Z,101129.97
2022-07-31T04:11:17.988Z,101126.41
2022-07-31T04:14:04.784Z,101129.78
2022-07-31T04:16:52.215Z,101126.09
2022-07-31T04:19:40.533Z,101123.28
2022-07-31T04:22:27.280Z,101126.63
2022-07-31T04:25:15.386Z,101130.00
2022-07-31T04:28:07.226Z,101131.66
2022-07-31T04:30:54.161Z,101128.03
2022-07-31T04:33:47.123Z,101126.06
2022-07-31T04:36:36.680Z,101122.63
2022-07-31T04:39:23.577Z,101122.38
2022-07-31T04:42:11.645Z,101129.84
2022-07-31T04:44:58.560Z,101135.78
2022-07-31T04:47:45.377Z,101138.41
2022-07-31T04:50:33.106Z,101131.09
2022-07-31T04:53:21.661Z,101133.50
2022-07-31T04:56:26.948Z,101126.84
2022-07-31T04:59:17.047Z,101134.44
2022-07-31T05:02:07.939Z,101136.72
2022-07-31T05:04:56.506Z,101139.59
2022-07-31T05:07:50.857Z,101113.31
2022-07-31T05:11:04.103Z,101143.31
2022-07-31T05:13:51.230Z,101135.97
2022-07-31T05:16:39.092Z,101141.09
2022-07-31T05:19:29.825Z,101135.22
2022-07-31T05:22:35.544Z,101136.16
2022-07-31T05:25:46.813Z,101143.59
2022-07-31T05:28:33.700Z,101142.94
2022-07-31T05:31:20.622Z,101142.22
2022-07-31T05:34:08.688Z,101145.09
2022-07-31T05:36:55.649Z,101148.63
2022-07-31T05:39:42.879Z,101150.84
2022-07-31T05:42:50.137Z,101141.31
2022-07-31T05:46:03.422Z,101142.81
2022-07-31T05:48:52.396Z,101131.06
2022-07-31T05:51:40.057Z,101146.00
2022-07-31T05:54:27.528Z,101141.59
2022-07-31T05:57:33.942Z,101147.16
2022-07-31T06:00:25.214Z,101154.63
2022-07-31T06:03:12.524Z,101139.16
2022-07-31T06:06:16.936Z,101140.16
2022-07-31T06:09:05.501Z,101132.97
2022-07-31T06:11:57.164Z,101145.66
2022-07-31T06:14:43.844Z,101141.06
2022-07-31T06:17:50.959Z,101145.50
2022-07-31T06:20:46.577Z,101150.41
2022-07-31T06:23:33.367Z,101146.44
2022-07-31T06:26:26.833Z,101108.31
2022-07-31T06:29:14.606Z,101141.16
2022-07-31T06:32:01.742Z,101146.88
2022-07-31T06:34:51.387Z,101146.38
2022-07-31T06:37:38.415Z,101145.22
2022-07-31T06:40:25.302Z,101151.75
2022-07-31T06:43:30.905Z,101154.72
2022-07-31T06:46:49.123Z,101157.91
2022-07-31T06:49:56.788Z,101148.72
2022-07-31T06:52:48.473Z,101144.31
2022-07-31T06:55:36.983Z,101145.13
2022-07-31T06:58:32.584Z,101138.16
2022-07-31T07:01:21.254Z,101140.06
2022-07-31T07:04:08.616Z,101140.19
2022-07-31T07:06:56.788Z,101130.13
2022-07-31T07:09:43.983Z,101141.97
2022-07-31T07:12:36.027Z,101136.22
2022-07-31T07:15:23.252Z,101127.28
2022-07-31T07:18:09.924Z,101131.91
2022-07-31T07:21:10.053Z,101116.75
2022-07-31T07:23:58.523Z,101123.94
2022-07-31T07:26:56.697Z,101129.94
2022-07-31T07:29:43.534Z,101127.88
2022-07-31T07:32:30.237Z,101122.03
2022-07-31T07:35:17.319Z,101129.66
2022-07-31T07:38:11.965Z,101117.53
2022-07-31T07:41:01.010Z,101106.00
2022-07-31T07:43:51.728Z,101109.97
2022-07-31T07:46:39.656Z,101111.28
2022-07-31T07:49:31.654Z,101103.81
2022-07-31T07:52:45.159Z,101114.44
2022-07-31T07:56:02.228Z,101100.78
2022-07-31T07:59:14.886Z,101105.13
2022-07-31T08:02:20.898Z,101101.63
2022-07-31T08:05:08.785Z,101100.72
2022-07-31T08:07:55.249Z,101100.78
2022-07-31T08:10:57.463Z,101098.75
2022-07-31T08:14:03.093Z,101107.44
2022-07-31T08:17:24.985Z,101098.13
2022-07-31T08:20:12.081Z,101091.16
2022-07-31T08:22:59.301Z,101086.16
2022-07-31T08:25:45.901Z,101081.72
2022-07-31T08:28:33.858Z,101080.88
2022-07-31T08:31:24.118Z,101082.97
2022-07-31T08:34:40.371Z,101083.94
2022-07-31T08:37:52.384Z,101084.22
2022-07-31T08:40:43.718Z,101077.97
2022-07-31T08:44:00.578Z,101075.63
2022-07-31T08:46:41.686Z,101073.50
2022-07-31T08:49:31.398Z,101069.19
2022-07-31T08:52:20.319Z,101069.56
2022-07-31T08:55:55.464Z,101063.63
2022-07-31T08:58:23.813Z,101068.31
2022-07-31T09:01:13.567Z,101066.31
2022-07-31T09:04:02.879Z,101062.66
2022-07-31T09:06:50.214Z,101067.44
2022-07-31T09:09:41.323Z,101071.09
2022-07-31T09:12:38.584Z,101063.03
2022-07-31T09:15:28.789Z,101068.00
2022-07-31T09:18:18.779Z,101069.66
2022-07-31T09:21:09.012Z,101067.00
2022-07-31T09:23:55.611Z,101063.91
2022-07-31T09:26:42.803Z,101052.81
2022-07-31T09:29:35.665Z,101042.22
2022-07-31T09:32:23.899Z,101055.25
2022-07-31T09:35:40.010Z,101030.53
2022-07-31T09:38:34.794Z,101042.78
2022-07-31T09:41:58.201Z,101042.38
2022-07-31T09:45:24.303Z,101036.00
2022-07-31T09:48:18.298Z,101039.75
2022-07-31T09:51:16.909Z,101028.47
2022-07-31T09:54:09.305Z,101023.44
2022-07-31T09:57:18.928Z,101031.03
2022-07-31T10:00:17.147Z,101024.06
2022-07-31T10:03:08.438Z,101013.78
2022-07-31T10:05:56.053Z,101012.31
2022-07-31T10:08:48.321Z,101012.31
2022-07-31T10:11:59.853Z,101011.31
2022-07-31T10:14:53.346Z,101002.59
2022-07-31T10:17:45.162Z,101006.63
2022-07-31T10:20:53.337Z,101007.59
2022-07-31T10:23:50.091Z,101009.34
2022-07-31T10:26:59.254Z,101004.06
2022-07-31T10:29:45.386Z,100996.34
2022-07-31T10:32:33.827Z,100996.75
2022-07-31T10:35:55.752Z,100992.44
2022-07-31T10:39:28.647Z,100992.00
2022-07-31T10:42:37.057Z,100992.69
2022-07-31T10:45:25.398Z,100989.91
2022-07-31T10:48:21.421Z,100988.03
2022-07-31T10:51:22.644Z,100984.09
2022-07-31T10:54:25.474Z,100982.69
2022-07-31T10:57:55.288Z,100978.41
2022-07-31T11:01:07.878Z,100977.84
2022-07-31T11:04:07.548Z,100963.06
2022-07-31T11:07:19.989Z,100967.72
2022-07-31T11:10:24.782Z,100964.81
2022-07-31T11:13:47.155Z,100960.88
2022-07-31T11:16:55.744Z,100964.66
2022-07-31T11:19:59.731Z,100970.44
2022-07-31T11:22:57.734Z,100969.59
2022-07-31T11:25:46.587Z,100957.56
2022-07-31T11:28:33.682Z,100971.66
2022-07-31T11:31:20.237Z,100954.38
2022-07-31T11:34:08.525Z,100962.78
2022-07-31T11:36:55.874Z,100959.91
2022-07-31T11:39:43.869Z,100958.50
2022-07-31T11:42:44.736Z,100949.91
2022-07-31T11:45:33.590Z,100952.84
2022-07-31T11:48:25.446Z,100949.34
2022-07-31T11:51:22.731Z,100952.28
2022-07-31T11:54:09.505Z,100956.50
2022-07-31T11:56:57.283Z,100951.81
2022-07-31T11:59:45.833Z,100946.94
2022-07-31T12:02:35.410Z,100945.94
2022-07-31T12:05:38.369Z,100940.34
2022-07-31T12:08:30.180Z,100944.53
2022-07-31T12:11:19.567Z,100942.13
2022-07-31T12:14:06.034Z,100931.13
2022-07-31T12:16:52.914Z,100932.63
2022-07-31T12:19:39.754Z,100922.59
2022-07-31T12:22:26.678Z,100918.72
2022-07-31T12:25:14.612Z,100921.94
2022-07-31T12:28:01.378Z,100913.38
2022-07-31T12:30:59.557Z,100906.66
2022-07-31T12:33:46.231Z,100903.69
2022-07-31T12:36:32.945Z,100912.53
2022-07-31T12:39:19.725Z,100911.06
2022-07-31T12:42:08.055Z,100902.44
2022-07-31T12:44:56.875Z,100900.41
2022-07-31T12:47:45.811Z,100894.78
2022-07-31T12:50:38.219Z,100893.44
2022-07-31T12:53:25.147Z,100887.84
2022-07-31T12:56:15.496Z,100895.97
2022-07-31T12:59:03.619Z,100902.50
2022-07-31T13:01:50.472Z,100887.50
2022-07-31T13:04:37.226Z,100879.28
2022-07-31T13:07:25.552Z,100882.09
2022-07-31T13:10:20.160Z,100878.34
2022-07-31T13:13:10.718Z,100878.16
2022-07-31T13:15:58.706Z,100866.88
2022-07-31T13:18:47.608Z,100865.13
2022-07-31T13:21:48.806Z,100867.75
2022-07-31T13:24:45.164Z,100862.75
2022-07-31T13:27:33.996Z,100864.13
2022-07-31T13:30:26.942Z,100864.25
2022-07-31T13:33:15.609Z,100861.91
2022-07-31T13:36:02.197Z,100856.41
2022-07-31T13:38:49.123Z,100858.91
2022-07-31T13:41:35.987Z,100860.81
2022-07-31T13:44:25.308Z,100865.44
2022-07-31T13:47:11.935Z,100856.44
2022-07-31T13:50:00.149Z,100859.78
2022-07-31T13:52:46.992Z,100856.34
2022-07-31T13:55:33.757Z,100856.53
2022-07-31T13:58:20.483Z,100851.84
2022-07-31T14:01:07.535Z,100853.88
2022-07-31T14:03:54.030Z,100852.97
2022-07-31T14:06:42.560Z,100856.81
2022-07-31T14:09:34.272Z,100855.09
2022-07-31T14:12:21.325Z,100848.75
2022-07-31T14:15:09.570Z,100847.03
2022-07-31T14:17:56.385Z,100843.34
2022-07-31T14:20:43.613Z,100851.09
2022-07-31T14:23:34.353Z,100844.09
2022-07-31T14:26:24.148Z,100845.13
2022-07-31T14:29:12.053Z,100836.72
2022-07-31T14:31:58.535Z,100836.69
2022-07-31T14:34:48.519Z,100824.84
2022-07-31T14:37:36.839Z,100827.56
2022-07-31T14:40:26.167Z,100828.44
2022-07-31T14:43:13.256Z,100827.44
2022-07-31T14:46:00.015Z,100823.88
2022-07-31T14:48:46.708Z,100823.00
2022-07-31T14:51:33.581Z,100824.03
2022-07-31T14:54:20.293Z,100827.00
2022-07-31T14:57:08.479Z,100819.91
2022-07-31T14:59:55.533Z,100820.72
2022-07-31T15:02:42.590Z,100820.72
2022-07-31T15:06:49.302Z,100821.63
2022-07-31T15:08:36.346Z,100818.50
2022-07-31T15:11:23.174Z,100815.41
2022-07-31T15:14:31.277Z,100811.34
2022-07-31T15:17:20.224Z,100814.94
2022-07-31T15:20:07.530Z,100806.84
2022-07-31T15:22:54.131Z,100806.22
2022-07-31T15:25:41.044Z,100804.44
2022-07-31T15:28:27.795Z,100811.75
2022-07-31T15:31:16.724Z,100797.44
2022-07-31T15:34:03.533Z,100798.59
2022-07-31T15:36:50.296Z,100800.06
2022-07-31T15:39:37.880Z,100801.13
2022-07-31T15:42:24.653Z,100801.72
2022-07-31T15:45:18.997Z,100800.75
2022-07-31T15:48:10.116Z,100792.09
2022-07-31T15:50:56.786Z,100798.44
2022-07-31T15:53:44.171Z,100794.44
2022-07-31T15:56:32.860Z,100797.84
2022-07-31T15:59:24.996Z,100795.44
2022-07-31T16:02:12.037Z,100795.44
2022-07-31T16:05:11.389Z,100789.94
2022-07-31T16:08:30.116Z,100783.59
2022-07-31T16:11:15.352Z,100785.34
2022-07-31T16:14:02.020Z,100780.63
2022-07-31T16:16:52.688Z,100778.06
2022-07-31T16:19:44.446Z,100781.78
2022-07-31T16:22:32.748Z,100774.09
2022-07-31T16:25:19.212Z,100779.81
2022-07-31T16:28:06.293Z,100776.34
2022-07-31T16:30:57.635Z,100775.63
2022-07-31T16:33:47.155Z,100769.53
2022-07-31T16:36:38.354Z,100775.19
2022-07-31T16:39:26.292Z,100768.63
2022-07-31T16:42:13.068Z,100766.19
2022-07-31T16:44:59.862Z,100774.00
2022-07-31T16:47:51.407Z,100763.59
2022-07-31T16:50:38.287Z,100768.75
2022-07-31T16:54:11.366Z,100769.44
2022-07-31T16:56:34.316Z,100769.44
2022-07-31T16:59:21.228Z,100766.03
2022-07-31T17:02:08.112Z,100760.19
2022-07-31T17:04:54.680Z,100764.03
2022-07-31T17:07:42.439Z,100759.19
2022-07-31T17:10:29.357Z,100761.16
2022-07-31T17:13:17.848Z,100764.16
2022-07-31T17:16:04.486Z,100764.84
2022-07-31T17:18:54.533Z,100761.41
2022-07-31T17:21:44.565Z,100754.00
2022-07-31T17:24:32.140Z,100764.41
2022-07-31T17:27:19.556Z,100771.84
2022-07-31T17:30:09.225Z,100769.13
2022-07-31T17:32:56.104Z,100772.84
2022-07-31T17:35:42.637Z,100773.13
2022-07-31T17:38:29.451Z,100768.28
2022-07-31T17:41:24.591Z,100772.84
2022-07-31T17:44:12.378Z,100770.53
2022-07-31T17:47:03.678Z,100775.66
2022-07-31T17:49:52.112Z,100766.22
2022-07-31T17:52:39.013Z,100768.31
2022-07-31T17:55:26.342Z,100750.47
2022-07-31T17:58:13.004Z,100765.84
2022-07-31T18:00:59.871Z,100766.59
2022-07-31T18:03:50.043Z,100748.09
2022-07-31T18:06:36.919Z,100764.97
2022-07-31T18:09:24.205Z,100768.31
2022-07-31T18:12:15.399Z,100763.94
2022-07-31T18:15:02.497Z,100767.72
2022-07-31T18:17:50.767Z,100765.19
2022-07-31T18:20:39.106Z,100768.94
2022-07-31T18:23:29.495Z,100768.72
2022-07-31T18:26:19.006Z,100768.63
2022-07-31T18:29:06.291Z,100759.44
2022-07-31T18:31:53.108Z,100759.19
2022-07-31T18:34:39.828Z,100768.75
2022-07-31T18:37:29.695Z,100755.31
2022-07-31T18:40:17.408Z,100767.16
2022-07-31T18:43:09.621Z,100769.78
2022-07-31T18:45:57.240Z,100767.59
2022-07-31T18:48:43.982Z,100772.25
2022-07-31T18:51:31.059Z,100760.72
2022-07-31T18:54:20.027Z,100773.25
2022-07-31T18:57:07.877Z,100767.13
2022-07-31T18:59:54.637Z,100771.03
2022-07-31T19:02:41.432Z,100772.50
2022-07-31T19:05:54.703Z,100770.31
2022-07-31T19:08:42.067Z,100775.94
2022-07-31T19:11:34.883Z,100773.84
2022-07-31T19:14:22.049Z,100766.09
2022-07-31T19:17:21.559Z,100768.16
2022-07-31T19:20:14.939Z,100763.13
2022-07-31T19:23:18.474Z,100769.75
2022-07-31T19:26:06.090Z,100769.63
2022-07-31T19:28:53.924Z,100770.94
2022-07-31T19:31:40.692Z,100773.41
2022-07-31T19:34:27.554Z,100778.19
2022-07-31T19:37:15.863Z,100777.72
2022-07-31T19:40:02.499Z,100776.34
2022-07-31T19:42:49.327Z,100774.88
2022-07-31T19:45:37.468Z,100768.97
2022-07-31T19:48:45.704Z,100764.16
2022-07-31T19:51:33.775Z,100765.25
2022-07-31T19:54:20.245Z,100760.97
2022-07-31T19:57:07.153Z,100764.75
2022-07-31T19:59:54.016Z,100761.44
2022-07-31T20:02:42.481Z,100758.13
2022-07-31T20:05:28.997Z,100762.03
2022-07-31T20:08:15.756Z,100757.63
2022-07-31T20:11:04.441Z,100761.25
2022-07-31T20:13:51.162Z,100760.50
2022-07-31T20:16:38.034Z,100755.59
2022-07-31T20:19:26.184Z,100748.94
2022-07-31T20:22:12.859Z,100751.88
2022-07-31T20:24:59.672Z,100743.16
2022-07-31T20:27:46.400Z,100745.75
2022-07-31T20:30:33.224Z,100737.78
2022-07-31T20:33:20.335Z,100741.31
2022-07-31T20:36:10.192Z,100747.81
2022-07-31T20:38:58.872Z,100739.09
2022-07-31T20:41:47.464Z,100736.63
2022-07-31T20:44:34.894Z,100732.34
2022-07-31T20:47:24.594Z,100736.13
2022-07-31T20:50:11.570Z,100726.56
2022-07-31T20:52:59.604Z,100729.88
2022-07-31T20:55:47.552Z,100713.84
2022-07-31T20:58:34.252Z,100724.59
2022-07-31T21:01:21.839Z,100727.78
2022-07-31T21:04:09.782Z,100728.25
2022-07-31T21:06:56.152Z,100726.66
2022-07-31T21:09:44.411Z,100726.88
2022-07-31T21:12:31.016Z,100725.97
2022-07-31T21:15:40.710Z,100736.88
2022-07-31T21:18:24.514Z,100726.69
2022-07-31T21:21:14.188Z,100715.84
2022-07-31T21:24:01.097Z,100723.75
2022-07-31T21:26:51.906Z,100713.72
2022-07-31T21:29:40.893Z,100711.34
2022-07-31T21:32:28.234Z,100704.50
2022-07-31T21:35:16.155Z,100699.09
2022-07-31T21:38:23.230Z,100698.03
2022-07-31T21:41:10.855Z,100694.13
2022-07-31T21:44:00.041Z,100694.34
2022-07-31T21:46:51.970Z,100703.09
2022-07-31T21:49:40.011Z,100705.47
2022-07-31T21:52:30.007Z,100703.28
2022-07-31T21:55:16.649Z,100702.59
2022-07-31T21:58:03.427Z,100694.81
2022-07-31T22:00:51.622Z,100701.44
2022-07-31T22:03:38.312Z,100700.25
2022-07-31T22:06:42.912Z,100705.84
2022-07-31T22:09:29.955Z,100709.78
2022-07-31T22:12:16.633Z,100697.28
2022-07-31T22:15:03.380Z,100704.72
2022-07-31T22:17:51.458Z,100684.31
2022-07-31T22:20:38.689Z,100692.44
2022-07-31T22:23:26.152Z,100687.59
2022-07-31T22:26:13.132Z,100687.50
2022-07-31T22:29:00.502Z,100682.56
2022-07-31T22:31:49.950Z,100683.22
2022-07-31T22:34:42.300Z,100679.56
2022-07-31T22:37:29.411Z,100677.31
2022-07-31T22:40:17.439Z,100679.84
2022-07-31T22:43:04.123Z,100685.53
2022-07-31T22:46:13.485Z,100677.38
2022-07-31T22:49:00.440Z,100680.16
2022-07-31T22:51:48.614Z,100683.06
2022-07-31T22:54:35.267Z,100688.53
2022-07-31T22:57:23.026Z,100688.75
2022-07-31T23:00:11.947Z,100681.56
2022-07-31T23:02:58.665Z,100686.94
2022-07-31T23:06:27.984Z,100683.59
2022-07-31T23:08:55.058Z,100687.03
2022-07-31T23:11:41.863Z,100690.91
2022-07-31T23:14:30.094Z,100703.69
2022-07-31T23:17:22.369Z,100695.75
2022-07-31T23:20:11.335Z,100703.59
2022-07-31T23:22:58.290Z,100702.19
2022-07-31T23:25:46.441Z,100703.78
2022-07-31T23:28:33.222Z,100706.69
2022-07-31T23:31:20.764Z,100709.59
2022-07-31T23:34:07.398Z,100696.59
2022-07-31T23:36:54.131Z,100704.22
2022-07-31T23:39:41.119Z,100704.47
2022-07-31T23:42:43.012Z,100706.41
2022-07-31T23:45:29.511Z,100705.00
2022-07-31T23:48:18.308Z,100711.19
2022-07-31T23:51:06.490Z,100702.50
2022-07-31T23:53:53.483Z,100705.50
2022-07-31T23:56:40.092Z,100710.44
2022-07-31T23:59:34.137Z,100717.75
